Des Lacs, ND (58733)

10:01 PM CDT on May 28, 2015 (GMT -0500)
Edgeview Estates | | Change Station
CLOSE
Current Station
Personal Weather Station
Location: Minot, ND
Elevation: 1752 ft
Nearby Weather Stations

Elev 1752 ft 48.21 °N, 101.33 °W | Updated 16 seconds ago

Partly Cloudy
Partly Cloudy
57.3 °F
Feels Like 57.3 °F
N
12.0
Wind Variable Wind from NW
Gusts 17.0 mph

Today
High -- | Low -- °F
--% Chance of Precip.
Yesterday
High -- | Low -- °F
Precip. -- in
5:53 AM 9:34 PM
Waxing Gibbous, 80% visible
Pressure 29.97 in
Visibility 10.0 miles
Clouds Scattered Clouds 1400 ft
Scattered Clouds 5500 ft
Dew Point 50 °F
Humidity 76%
Rainfall 0.09 in
Snow Depth Not available.
UV 0 out of 12
Pollen 2.70 out of 12
Air Quality Not available.
Flu Activity Sporadic
METAR KMOT 290254Z 34017G28KT 10SM -RA SCT014 SCT055 14/11 A2996 RMK AO2 PK WND 33029/0228 RAB29 SLP148 P0000 60000 T01390106 53034

More Conditions Fewer Conditions

Pressure 29.97 in
Visibility 10.0 miles
Clouds Scattered Clouds 1400 ft
Scattered Clouds 5500 ft
Dew Point 50 °F
Humidity 76%
Rainfall 0.09 in
Snow Depth Not available.
UV 0 out of 12
Pollen 2.70 out of 12
Air Quality Not available.
Flu Activity Sporadic
METAR KMOT 290254Z 34017G28KT 10SM -RA SCT014 SCT055 14/11 A2996 RMK AO2 PK WND 33029/0228 RAB29 SLP148 P0000 60000 T01390106 53034

More Conditions Fewer Conditions

10-Day Weather Forecast

Almanac

Astronomy

May. 28, 2015 Rise Set
Actual Time
Civil Twilight
Nautical Twilight
Astronomical Twilight
Moon
Length of Visible Light
Length of Day
Tomorrow will be .
, % of the Moon is Illuminated

Today's Extremes

State Highs State Lows

Community

WunderPhotos

Upload Photos

1,825,149 photos uploaded!

WunderBlogs® & News

Nearby

Air Quality

  Air Quality AQ Index Pollutant
Not available.

Snow Depth

Station Depth Elevation

Earthquake Activity

City Distance Mag. Time & Date
Minimum magnitude displayed is 2.5.

Coastal Water Temperatures

Place Temperature

Stations

Nearby Weather Stations

Station Location Temp. Windchill Dew Point Humidity Wind Precip. Elev Updated Type